sensor_id;sensor_type;location;lat;lon;timestamp;P1;durP1;ratioP1;P2;durP2;ratioP2
77085;SDS011;66014;53.134;18.006;2023-04-23T00:01:08;15.40;;;10.10;;
77085;SDS011;66014;53.134;18.006;2023-04-23T00:07:21;19.10;;;9.70;;
77085;SDS011;66014;53.134;18.006;2023-04-23T00:09:49;18.10;;;10.70;;
77085;SDS011;66014;53.134;18.006;2023-04-23T00:12:17;18.20;;;10.40;;
77085;SDS011;66014;53.134;18.006;2023-04-23T00:14:50;15.90;;;10.50;;
77085;SDS011;66014;53.134;18.006;2023-04-23T00:17:20;21.70;;;10.70;;
77085;SDS011;66014;53.134;18.006;2023-04-23T00:19:46;19.60;;;11.00;;
77085;SDS011;66014;53.134;18.006;2023-04-23T00:22:13;21.70;;;11.20;;
77085;SDS011;66014;53.134;18.006;2023-04-23T00:24:42;24.00;;;11.90;;
77085;SDS011;66014;53.134;18.006;2023-04-23T00:27:08;19.50;;;11.40;;
77085;SDS011;66014;53.134;18.006;2023-04-23T00:29:35;19.30;;;11.80;;
77085;SDS011;66014;53.134;18.006;2023-04-23T00:32:01;20.90;;;11.00;;
77085;SDS011;66014;53.134;18.006;2023-04-23T00:34:28;21.20;;;11.60;;
77085;SDS011;66014;53.134;18.006;2023-04-23T00:36:54;19.60;;;10.90;;
77085;SDS011;66014;53.134;18.006;2023-04-23T00:51:37;21.40;;;11.70;;
77085;SDS011;66014;53.134;18.006;2023-04-23T00:54:05;22.30;;;11.80;;
77085;SDS011;66014;53.134;18.006;2023-04-23T00:56:34;22.00;;;12.50;;
77085;SDS011;66014;53.134;18.006;2023-04-23T00:59:01;21.80;;;13.20;;
77085;SDS011;66014;53.134;18.006;2023-04-23T01:03:58;20.50;;;11.00;;
77085;SDS011;66014;53.134;18.006;2023-04-23T01:06:25;19.60;;;12.00;;
77085;SDS011;66014;53.134;18.006;2023-04-23T01:08:56;22.40;;;12.40;;
77085;SDS011;66014;53.134;18.006;2023-04-23T01:11:24;25.60;;;11.60;;
77085;SDS011;66014;53.134;18.006;2023-04-23T01:13:50;22.60;;;12.40;;
77085;SDS011;66014;53.134;18.006;2023-04-23T01:16:17;21.20;;;12.40;;
77085;SDS011;66014;53.134;18.006;2023-04-23T01:18:44;22.40;;;12.90;;
77085;SDS011;66014;53.134;18.006;2023-04-23T01:21:11;21.90;;;10.90;;
77085;SDS011;66014;53.134;18.006;2023-04-23T01:23:38;22.10;;;12.20;;
77085;SDS011;66014;53.134;18.006;2023-04-23T01:26:23;21.30;;;12.00;;
77085;SDS011;66014;53.134;18.006;2023-04-23T01:28:52;27.70;;;12.70;;
77085;SDS011;66014;53.134;18.006;2023-04-23T01:31:19;21.90;;;12.00;;
77085;SDS011;66014;53.134;18.006;2023-04-23T01:33:46;24.60;;;13.20;;
77085;SDS011;66014;53.134;18.006;2023-04-23T01:41:55;23.50;;;12.10;;
77085;SDS011;66014;53.134;18.006;2023-04-23T01:44:22;19.60;;;11.20;;
77085;SDS011;66014;53.134;18.006;2023-04-23T01:46:49;19.80;;;12.00;;
77085;SDS011;66014;53.134;18.006;2023-04-23T01:49:16;22.30;;;12.90;;
77085;SDS011;66014;53.134;18.006;2023-04-23T01:51:42;27.70;;;12.80;;
77085;SDS011;66014;53.134;18.006;2023-04-23T01:54:09;22.40;;;12.20;;
77085;SDS011;66014;53.134;18.006;2023-04-23T01:56:35;24.00;;;12.90;;
77085;SDS011;66014;53.134;18.006;2023-04-23T01:59:02;22.70;;;12.50;;
77085;SDS011;66014;53.134;18.006;2023-04-23T02:01:42;24.70;;;12.90;;
77085;SDS011;66014;53.134;18.006;2023-04-23T02:04:11;22.60;;;12.90;;
77085;SDS011;66014;53.134;18.006;2023-04-23T02:06:39;21.20;;;12.20;;
77085;SDS011;66014;53.134;18.006;2023-04-23T02:09:17;26.60;;;13.30;;
77085;SDS011;66014;53.134;18.006;2023-04-23T02:11:49;20.80;;;11.80;;
77085;SDS011;66014;53.134;18.006;2023-04-23T02:14:16;26.30;;;13.80;;
77085;SDS011;66014;53.134;18.006;2023-04-23T02:16:43;25.10;;;13.60;;
77085;SDS011;66014;53.134;18.006;2023-04-23T02:19:10;27.80;;;13.30;;
77085;SDS011;66014;53.134;18.006;2023-04-23T02:21:37;26.30;;;13.10;;
77085;SDS011;66014;53.134;18.006;2023-04-23T02:24:05;22.80;;;12.40;;
77085;SDS011;66014;53.134;18.006;2023-04-23T02:26:32;27.30;;;14.30;;
77085;SDS011;66014;53.134;18.006;2023-04-23T02:28:59;26.50;;;13.50;;
77085;SDS011;66014;53.134;18.006;2023-04-23T02:31:25;24.00;;;13.30;;
77085;SDS011;66014;53.134;18.006;2023-04-23T02:33:52;23.00;;;13.10;;
77085;SDS011;66014;53.134;18.006;2023-04-23T02:36:18;23.30;;;12.40;;
77085;SDS011;66014;53.134;18.006;2023-04-23T02:39:03;27.60;;;14.00;;
77085;SDS011;66014;53.134;18.006;2023-04-23T02:41:32;21.80;;;12.40;;
77085;SDS011;66014;53.134;18.006;2023-04-23T02:50:05;24.80;;;12.00;;
77085;SDS011;66014;53.134;18.006;2023-04-23T02:52:32;24.50;;;12.70;;
77085;SDS011;66014;53.134;18.006;2023-04-23T02:55:01;25.40;;;12.70;;
77085;SDS011;66014;53.134;18.006;2023-04-23T02:57:28;22.10;;;12.40;;
77085;SDS011;66014;53.134;18.006;2023-04-23T03:03:06;21.90;;;11.90;;
77085;SDS011;66014;53.134;18.006;2023-04-23T03:14:56;20.40;;;11.70;;
77085;SDS011;66014;53.134;18.006;2023-04-23T03:20:28;22.20;;;11.70;;
77085;SDS011;66014;53.134;18.006;2023-04-23T03:22:58;21.60;;;11.90;;
77085;SDS011;66014;53.134;18.006;2023-04-23T03:31:41;20.60;;;12.40;;
77085;SDS011;66014;53.134;18.006;2023-04-23T03:34:16;21.40;;;11.10;;
77085;SDS011;66014;53.134;18.006;2023-04-23T03:36:42;19.90;;;11.50;;
77085;SDS011;66014;53.134;18.006;2023-04-23T03:39:09;23.40;;;12.60;;
77085;SDS011;66014;53.134;18.006;2023-04-23T03:41:36;24.80;;;12.80;;
77085;SDS011;66014;53.134;18.006;2023-04-23T03:44:03;21.50;;;13.10;;
77085;SDS011;66014;53.134;18.006;2023-04-23T03:46:29;30.90;;;13.80;;
77085;SDS011;66014;53.134;18.006;2023-04-23T03:48:57;27.80;;;14.40;;
77085;SDS011;66014;53.134;18.006;2023-04-23T03:51:23;24.10;;;12.40;;
77085;SDS011;66014;53.134;18.006;2023-04-23T03:53:50;25.90;;;12.70;;
77085;SDS011;66014;53.134;18.006;2023-04-23T03:56:17;27.90;;;13.00;;
77085;SDS011;66014;53.134;18.006;2023-04-23T03:58:43;25.30;;;12.60;;
77085;SDS011;66014;53.134;18.006;2023-04-23T04:01:10;25.00;;;12.90;;
77085;SDS011;66014;53.134;18.006;2023-04-23T04:03:36;24.80;;;12.20;;
77085;SDS011;66014;53.134;18.006;2023-04-23T04:06:03;21.20;;;12.80;;
77085;SDS011;66014;53.134;18.006;2023-04-23T04:08:30;25.00;;;13.50;;
77085;SDS011;66014;53.134;18.006;2023-04-23T04:32:34;24.10;;;13.00;;
77085;SDS011;66014;53.134;18.006;2023-04-23T04:35:04;25.30;;;12.90;;
77085;SDS011;66014;53.134;18.006;2023-04-23T04:37:31;25.20;;;13.20;;
77085;SDS011;66014;53.134;18.006;2023-04-23T04:39:58;23.20;;;13.70;;
77085;SDS011;66014;53.134;18.006;2023-04-23T04:50:13;25.70;;;13.20;;
77085;SDS011;66014;53.134;18.006;2023-04-23T04:52:39;24.90;;;13.30;;
77085;SDS011;66014;53.134;18.006;2023-04-23T04:55:06;24.70;;;13.30;;
77085;SDS011;66014;53.134;18.006;2023-04-23T04:57:32;25.20;;;12.70;;
77085;SDS011;66014;53.134;18.006;2023-04-23T05:00:00;20.40;;;12.20;;
77085;SDS011;66014;53.134;18.006;2023-04-23T05:02:29;26.40;;;13.80;;
77085;SDS011;66014;53.134;18.006;2023-04-23T05:04:55;22.50;;;12.20;;
77085;SDS011;66014;53.134;18.006;2023-04-23T05:07:21;21.80;;;12.20;;
77085;SDS011;66014;53.134;18.006;2023-04-23T05:09:47;27.00;;;12.70;;
77085;SDS011;66014;53.134;18.006;2023-04-23T05:12:12;21.60;;;11.30;;
77085;SDS011;66014;53.134;18.006;2023-04-23T05:14:38;21.60;;;11.70;;
77085;SDS011;66014;53.134;18.006;2023-04-23T05:17:04;22.00;;;12.00;;
77085;SDS011;66014;53.134;18.006;2023-04-23T05:19:32;22.80;;;12.00;;
77085;SDS011;66014;53.134;18.006;2023-04-23T05:21:59;24.60;;;12.50;;
77085;SDS011;66014;53.134;18.006;2023-04-23T05:24:27;22.20;;;12.30;;
77085;SDS011;66014;53.134;18.006;2023-04-23T05:26:53;22.30;;;12.60;;
77085;SDS011;66014;53.134;18.006;2023-04-23T05:29:19;27.00;;;12.70;;
77085;SDS011;66014;53.134;18.006;2023-04-23T05:31:45;19.90;;;11.50;;
77085;SDS011;66014;53.134;18.006;2023-04-23T05:34:11;19.70;;;10.80;;
77085;SDS011;66014;53.134;18.006;2023-04-23T05:36:37;23.60;;;12.80;;
77085;SDS011;66014;53.134;18.006;2023-04-23T05:39:03;25.90;;;12.00;;
77085;SDS011;66014;53.134;18.006;2023-04-23T05:41:29;22.70;;;12.10;;
77085;SDS011;66014;53.134;18.006;2023-04-23T05:43:56;24.20;;;13.30;;
77085;SDS011;66014;53.134;18.006;2023-04-23T05:46:23;22.80;;;12.30;;
77085;SDS011;66014;53.134;18.006;2023-04-23T05:48:49;21.40;;;12.70;;
77085;SDS011;66014;53.134;18.006;2023-04-23T05:51:15;22.70;;;13.20;;
77085;SDS011;66014;53.134;18.006;2023-04-23T05:53:59;24.20;;;11.80;;
77085;SDS011;66014;53.134;18.006;2023-04-23T05:56:33;19.50;;;11.40;;
77085;SDS011;66014;53.134;18.006;2023-04-23T06:02:41;20.50;;;11.10;;
77085;SDS011;66014;53.134;18.006;2023-04-23T06:05:07;21.00;;;11.80;;
77085;SDS011;66014;53.134;18.006;2023-04-23T06:07:34;20.60;;;11.50;;
77085;SDS011;66014;53.134;18.006;2023-04-23T06:10:02;17.50;;;11.20;;
77085;SDS011;66014;53.134;18.006;2023-04-23T06:12:30;18.00;;;11.30;;
77085;SDS011;66014;53.134;18.006;2023-04-23T06:14:56;17.40;;;11.10;;
77085;SDS011;66014;53.134;18.006;2023-04-23T06:17:23;18.40;;;10.80;;
77085;SDS011;66014;53.134;18.006;2023-04-23T06:19:49;17.50;;;11.10;;
77085;SDS011;66014;53.134;18.006;2023-04-23T06:22:15;16.60;;;10.50;;
77085;SDS011;66014;53.134;18.006;2023-04-23T06:24:41;15.80;;;11.20;;
77085;SDS011;66014;53.134;18.006;2023-04-23T06:27:11;17.70;;;10.60;;
77085;SDS011;66014;53.134;18.006;2023-04-23T06:29:38;18.10;;;10.30;;
77085;SDS011;66014;53.134;18.006;2023-04-23T06:32:06;17.60;;;10.30;;
77085;SDS011;66014;53.134;18.006;2023-04-23T06:34:32;16.10;;;10.50;;
77085;SDS011;66014;53.134;18.006;2023-04-23T06:36:58;16.00;;;10.20;;
77085;SDS011;66014;53.134;18.006;2023-04-23T06:39:27;15.00;;;9.80;;
77085;SDS011;66014;53.134;18.006;2023-04-23T06:41:53;14.40;;;9.30;;
77085;SDS011;66014;53.134;18.006;2023-04-23T06:44:19;14.20;;;9.10;;
77085;SDS011;66014;53.134;18.006;2023-04-23T06:46:45;14.80;;;8.90;;
77085;SDS011;66014;53.134;18.006;2023-04-23T06:49:11;14.80;;;9.00;;
77085;SDS011;66014;53.134;18.006;2023-04-23T06:51:37;12.90;;;8.80;;
77085;SDS011;66014;53.134;18.006;2023-04-23T06:54:03;11.30;;;8.00;;
77085;SDS011;66014;53.134;18.006;2023-04-23T06:57:12;12.40;;;8.40;;
77085;SDS011;66014;53.134;18.006;2023-04-23T06:59:38;13.20;;;7.90;;
77085;SDS011;66014;53.134;18.006;2023-04-23T07:02:04;12.30;;;7.70;;
77085;SDS011;66014;53.134;18.006;2023-04-23T07:04:31;10.80;;;7.50;;
77085;SDS011;66014;53.134;18.006;2023-04-23T07:06:56;13.40;;;8.00;;
77085;SDS011;66014;53.134;18.006;2023-04-23T07:09:23;15.90;;;8.90;;
77085;SDS011;66014;53.134;18.006;2023-04-23T07:11:49;10.90;;;6.10;;
77085;SDS011;66014;53.134;18.006;2023-04-23T07:14:15;11.60;;;6.80;;
77085;SDS011;66014;53.134;18.006;2023-04-23T07:23:15;25.20;;;15.10;;
77085;SDS011;66014;53.134;18.006;2023-04-23T07:25:43;44.50;;;21.80;;
77085;SDS011;66014;53.134;18.006;2023-04-23T07:28:50;30.60;;;17.20;;
77085;SDS011;66014;53.134;18.006;2023-04-23T07:31:35;14.80;;;8.30;;
77085;SDS011;66014;53.134;18.006;2023-04-23T07:34:03;9.80;;;6.80;;
77085;SDS011;66014;53.134;18.006;2023-04-23T07:36:29;11.30;;;6.10;;
77085;SDS011;66014;53.134;18.006;2023-04-23T07:38:57;11.20;;;6.80;;
77085;SDS011;66014;53.134;18.006;2023-04-23T07:41:23;8.60;;;6.10;;
77085;SDS011;66014;53.134;18.006;2023-04-23T07:43:52;9.20;;;5.60;;
77085;SDS011;66014;53.134;18.006;2023-04-23T07:46:22;8.30;;;6.10;;
77085;SDS011;66014;53.134;18.006;2023-04-23T07:48:47;9.50;;;6.10;;
77085;SDS011;66014;53.134;18.006;2023-04-23T07:51:13;11.20;;;6.60;;
77085;SDS011;66014;53.134;18.006;2023-04-23T07:53:39;11.20;;;5.60;;
77085;SDS011;66014;53.134;18.006;2023-04-23T07:56:05;10.40;;;5.80;;
77085;SDS011;66014;53.134;18.006;2023-04-23T07:58:35;10.00;;;5.80;;
77085;SDS011;66014;53.134;18.006;2023-04-23T08:01:09;9.00;;;6.00;;
77085;SDS011;66014;53.134;18.006;2023-04-23T08:03:35;10.70;;;6.10;;
77085;SDS011;66014;53.134;18.006;2023-04-23T08:06:01;11.50;;;7.80;;
77085;SDS011;66014;53.134;18.006;2023-04-23T08:08:29;15.20;;;7.50;;
77085;SDS011;66014;53.134;18.006;2023-04-23T08:10:55;8.50;;;6.50;;
77085;SDS011;66014;53.134;18.006;2023-04-23T08:13:21;9.80;;;6.00;;
77085;SDS011;66014;53.134;18.006;2023-04-23T08:15:46;7.20;;;5.10;;
77085;SDS011;66014;53.134;18.006;2023-04-23T08:18:13;9.60;;;5.20;;
77085;SDS011;66014;53.134;18.006;2023-04-23T08:20:41;9.40;;;5.10;;
77085;SDS011;66014;53.134;18.006;2023-04-23T08:23:07;8.10;;;5.00;;
77085;SDS011;66014;53.134;18.006;2023-04-23T08:25:33;9.30;;;5.50;;
77085;SDS011;66014;53.134;18.006;2023-04-23T08:28:02;9.10;;;5.20;;
77085;SDS011;66014;53.134;18.006;2023-04-23T08:30:30;7.50;;;4.70;;
77085;SDS011;66014;53.134;18.006;2023-04-23T08:32:58;8.30;;;4.00;;
77085;SDS011;66014;53.134;18.006;2023-04-23T08:35:40;7.40;;;4.30;;
77085;SDS011;66014;53.134;18.006;2023-04-23T08:38:21;6.50;;;3.80;;
77085;SDS011;66014;53.134;18.006;2023-04-23T08:40:46;8.50;;;4.50;;
77085;SDS011;66014;53.134;18.006;2023-04-23T08:43:18;10.00;;;4.90;;
77085;SDS011;66014;53.134;18.006;2023-04-23T08:45:45;7.90;;;4.70;;
77085;SDS011;66014;53.134;18.006;2023-04-23T08:51:18;8.30;;;4.70;;
77085;SDS011;66014;53.134;18.006;2023-04-23T08:53:48;9.50;;;4.80;;
77085;SDS011;66014;53.134;18.006;2023-04-23T08:56:31;8.80;;;5.50;;
77085;SDS011;66014;53.134;18.006;2023-04-23T08:58:57;8.70;;;4.90;;
77085;SDS011;66014;53.134;18.006;2023-04-23T09:01:24;8.90;;;4.30;;
77085;SDS011;66014;53.134;18.006;2023-04-23T09:03:59;9.50;;;4.30;;
77085;SDS011;66014;53.134;18.006;2023-04-23T09:06:44;7.50;;;4.20;;
77085;SDS011;66014;53.134;18.006;2023-04-23T09:09:12;10.90;;;3.90;;
77085;SDS011;66014;53.134;18.006;2023-04-23T09:11:41;7.90;;;3.60;;
77085;SDS011;66014;53.134;18.006;2023-04-23T09:14:07;11.40;;;4.20;;
77085;SDS011;66014;53.134;18.006;2023-04-23T09:16:37;5.20;;;2.90;;
77085;SDS011;66014;53.134;18.006;2023-04-23T09:33:41;7.00;;;3.30;;
77085;SDS011;66014;53.134;18.006;2023-04-23T09:43:11;6.60;;;3.40;;
77085;SDS011;66014;53.134;18.006;2023-04-23T09:52:36;7.00;;;2.90;;
77085;SDS011;66014;53.134;18.006;2023-04-23T09:55:27;14.20;;;1.80;;
77085;SDS011;66014;53.134;18.006;2023-04-23T09:58:11;10.00;;;3.10;;
77085;SDS011;66014;53.134;18.006;2023-04-23T10:00:48;5.70;;;2.70;;
77085;SDS011;66014;53.134;18.006;2023-04-23T10:03:20;6.50;;;3.10;;
77085;SDS011;66014;53.134;18.006;2023-04-23T10:09:21;5.80;;;2.90;;
77085;SDS011;66014;53.134;18.006;2023-04-23T10:11:54;6.00;;;3.00;;
77085;SDS011;66014;53.134;18.006;2023-04-23T10:14:52;7.90;;;3.30;;
77085;SDS011;66014;53.134;18.006;2023-04-23T10:31:23;6.30;;;2.40;;
77085;SDS011;66014;53.134;18.006;2023-04-23T10:33:49;6.20;;;2.90;;
77085;SDS011;66014;53.134;18.006;2023-04-23T10:39:27;4.50;;;2.70;;
77085;SDS011;66014;53.134;18.006;2023-04-23T10:42:01;4.90;;;2.20;;
77085;SDS011;66014;53.134;18.006;2023-04-23T10:44:32;3.70;;;1.90;;
77085;SDS011;66014;53.134;18.006;2023-04-23T10:47:01;6.80;;;2.70;;
77085;SDS011;66014;53.134;18.006;2023-04-23T10:49:29;3.20;;;2.00;;
77085;SDS011;66014;53.134;18.006;2023-04-23T10:52:00;6.40;;;3.00;;
77085;SDS011;66014;53.134;18.006;2023-04-23T10:54:28;5.30;;;2.60;;
77085;SDS011;66014;53.134;18.006;2023-04-23T10:57:03;7.20;;;3.80;;
77085;SDS011;66014;53.134;18.006;2023-04-23T10:59:32;9.80;;;3.20;;
77085;SDS011;66014;53.134;18.006;2023-04-23T11:02:09;8.20;;;2.90;;
77085;SDS011;66014;53.134;18.006;2023-04-23T11:04:41;6.20;;;2.90;;
77085;SDS011;66014;53.134;18.006;2023-04-23T11:07:24;5.00;;;2.70;;
77085;SDS011;66014;53.134;18.006;2023-04-23T11:09:59;3.80;;;2.30;;
77085;SDS011;66014;53.134;18.006;2023-04-23T11:12:46;6.00;;;3.10;;
77085;SDS011;66014;53.134;18.006;2023-04-23T11:15:13;7.90;;;3.00;;
77085;SDS011;66014;53.134;18.006;2023-04-23T11:20:12;4.80;;;2.70;;
77085;SDS011;66014;53.134;18.006;2023-04-23T11:22:47;6.50;;;3.50;;
77085;SDS011;66014;53.134;18.006;2023-04-23T11:25:24;8.30;;;3.60;;
77085;SDS011;66014;53.134;18.006;2023-04-23T11:27:54;6.50;;;3.10;;
77085;SDS011;66014;53.134;18.006;2023-04-23T11:30:23;7.50;;;3.80;;
77085;SDS011;66014;53.134;18.006;2023-04-23T11:32:52;4.30;;;2.30;;
77085;SDS011;66014;53.134;18.006;2023-04-23T11:35:23;6.20;;;2.60;;
77085;SDS011;66014;53.134;18.006;2023-04-23T11:37:53;13.00;;;5.10;;
77085;SDS011;66014;53.134;18.006;2023-04-23T11:40:19;8.70;;;3.80;;
77085;SDS011;66014;53.134;18.006;2023-04-23T11:45:21;5.30;;;2.40;;
77085;SDS011;66014;53.134;18.006;2023-04-23T11:47:49;17.10;;;5.50;;
77085;SDS011;66014;53.134;18.006;2023-04-23T11:50:23;5.70;;;2.70;;
77085;SDS011;66014;53.134;18.006;2023-04-23T11:52:55;7.00;;;2.40;;
77085;SDS011;66014;53.134;18.006;2023-04-23T11:55:21;11.80;;;4.60;;
77085;SDS011;66014;53.134;18.006;2023-04-23T11:57:49;11.00;;;4.30;;
77085;SDS011;66014;53.134;18.006;2023-04-23T12:00:20;7.40;;;3.20;;
77085;SDS011;66014;53.134;18.006;2023-04-23T12:07:53;8.00;;;2.20;;
77085;SDS011;66014;53.134;18.006;2023-04-23T12:10:19;5.50;;;2.60;;
77085;SDS011;66014;53.134;18.006;2023-04-23T12:12:50;9.10;;;3.60;;
77085;SDS011;66014;53.134;18.006;2023-04-23T12:15:17;7.30;;;3.30;;
77085;SDS011;66014;53.134;18.006;2023-04-23T12:17:47;22.70;;;8.20;;
77085;SDS011;66014;53.134;18.006;2023-04-23T12:20:17;7.10;;;3.00;;
77085;SDS011;66014;53.134;18.006;2023-04-23T12:22:46;3.90;;;2.10;;
77085;SDS011;66014;53.134;18.006;2023-04-23T12:25:12;7.60;;;2.60;;
77085;SDS011;66014;53.134;18.006;2023-04-23T12:27:48;4.80;;;2.30;;
77085;SDS011;66014;53.134;18.006;2023-04-23T12:30:29;4.40;;;2.00;;
77085;SDS011;66014;53.134;18.006;2023-04-23T12:33:16;5.00;;;1.80;;
77085;SDS011;66014;53.134;18.006;2023-04-23T12:35:58;4.30;;;1.70;;
77085;SDS011;66014;53.134;18.006;2023-04-23T12:38:26;3.70;;;2.00;;
77085;SDS011;66014;53.134;18.006;2023-04-23T12:40:57;3.90;;;2.00;;
77085;SDS011;66014;53.134;18.006;2023-04-23T12:43:25;4.80;;;1.80;;
77085;SDS011;66014;53.134;18.006;2023-04-23T12:45:53;4.20;;;2.00;;
77085;SDS011;66014;53.134;18.006;2023-04-23T12:52:30;4.20;;;2.00;;
77085;SDS011;66014;53.134;18.006;2023-04-23T12:54:56;5.50;;;2.00;;
77085;SDS011;66014;53.134;18.006;2023-04-23T12:57:23;5.80;;;2.00;;
77085;SDS011;66014;53.134;18.006;2023-04-23T12:59:49;4.30;;;2.10;;
77085;SDS011;66014;53.134;18.006;2023-04-23T13:02:25;3.90;;;2.10;;
77085;SDS011;66014;53.134;18.006;2023-04-23T13:05:02;4.80;;;1.90;;
77085;SDS011;66014;53.134;18.006;2023-04-23T13:07:31;5.00;;;2.00;;
77085;SDS011;66014;53.134;18.006;2023-04-23T13:10:12;5.60;;;2.30;;
77085;SDS011;66014;53.134;18.006;2023-04-23T13:12:46;7.00;;;2.40;;
77085;SDS011;66014;53.134;18.006;2023-04-23T13:15:41;4.20;;;2.50;;
77085;SDS011;66014;53.134;18.006;2023-04-23T13:18:09;4.50;;;2.20;;
77085;SDS011;66014;53.134;18.006;2023-04-23T13:20:35;5.20;;;2.40;;
77085;SDS011;66014;53.134;18.006;2023-04-23T13:23:01;8.80;;;2.70;;
77085;SDS011;66014;53.134;18.006;2023-04-23T13:25:27;7.00;;;2.20;;
77085;SDS011;66014;53.134;18.006;2023-04-23T13:27:54;5.20;;;2.30;;
77085;SDS011;66014;53.134;18.006;2023-04-23T13:30:20;6.20;;;2.80;;
77085;SDS011;66014;53.134;18.006;2023-04-23T13:32:46;5.00;;;2.70;;
77085;SDS011;66014;53.134;18.006;2023-04-23T13:35:12;8.00;;;2.70;;
77085;SDS011;66014;53.134;18.006;2023-04-23T13:37:40;10.20;;;2.80;;
77085;SDS011;66014;53.134;18.006;2023-04-23T13:40:06;4.70;;;2.20;;
77085;SDS011;66014;53.134;18.006;2023-04-23T13:42:32;4.90;;;2.60;;
77085;SDS011;66014;53.134;18.006;2023-04-23T13:44:58;4.60;;;2.30;;
77085;SDS011;66014;53.134;18.006;2023-04-23T13:47:24;3.20;;;2.20;;
77085;SDS011;66014;53.134;18.006;2023-04-23T13:49:55;4.70;;;2.80;;
77085;SDS011;66014;53.134;18.006;2023-04-23T13:52:21;5.30;;;2.40;;
77085;SDS011;66014;53.134;18.006;2023-04-23T13:54:46;5.80;;;2.70;;
77085;SDS011;66014;53.134;18.006;2023-04-23T13:57:13;5.40;;;2.50;;
77085;SDS011;66014;53.134;18.006;2023-04-23T13:59:40;5.70;;;2.50;;
77085;SDS011;66014;53.134;18.006;2023-04-23T14:02:06;5.40;;;2.70;;
77085;SDS011;66014;53.134;18.006;2023-04-23T14:04:33;4.60;;;2.90;;
77085;SDS011;66014;53.134;18.006;2023-04-23T14:06:59;4.00;;;2.80;;
77085;SDS011;66014;53.134;18.006;2023-04-23T14:09:24;6.40;;;3.10;;
77085;SDS011;66014;53.134;18.006;2023-04-23T14:11:51;6.40;;;3.00;;
77085;SDS011;66014;53.134;18.006;2023-04-23T14:14:16;5.50;;;2.70;;
77085;SDS011;66014;53.134;18.006;2023-04-23T14:16:42;4.80;;;2.90;;
77085;SDS011;66014;53.134;18.006;2023-04-23T14:19:08;6.80;;;3.30;;
77085;SDS011;66014;53.134;18.006;2023-04-23T14:21:38;6.70;;;3.30;;
77085;SDS011;66014;53.134;18.006;2023-04-23T14:26:57;7.60;;;2.80;;
77085;SDS011;66014;53.134;18.006;2023-04-23T14:32:06;5.60;;;2.10;;
77085;SDS011;66014;53.134;18.006;2023-04-23T14:40:38;5.80;;;2.60;;
77085;SDS011;66014;53.134;18.006;2023-04-23T14:43:13;8.00;;;4.30;;
77085;SDS011;66014;53.134;18.006;2023-04-23T14:45:40;5.40;;;2.80;;
77085;SDS011;66014;53.134;18.006;2023-04-23T14:48:55;5.00;;;2.70;;
77085;SDS011;66014;53.134;18.006;2023-04-23T14:51:21;4.80;;;3.20;;
77085;SDS011;66014;53.134;18.006;2023-04-23T14:54:02;4.50;;;2.50;;
77085;SDS011;66014;53.134;18.006;2023-04-23T14:56:28;6.30;;;2.70;;
77085;SDS011;66014;53.134;18.006;2023-04-23T14:58:56;3.80;;;2.20;;
77085;SDS011;66014;53.134;18.006;2023-04-23T15:05:25;4.20;;;1.80;;
77085;SDS011;66014;53.134;18.006;2023-04-23T15:07:51;4.80;;;2.40;;
77085;SDS011;66014;53.134;18.006;2023-04-23T15:10:18;4.10;;;2.30;;
77085;SDS011;66014;53.134;18.006;2023-04-23T15:15:36;3.90;;;2.50;;
77085;SDS011;66014;53.134;18.006;2023-04-23T15:18:07;6.20;;;2.70;;
77085;SDS011;66014;53.134;18.006;2023-04-23T15:20:32;6.50;;;2.40;;
77085;SDS011;66014;53.134;18.006;2023-04-23T15:22:58;4.80;;;2.70;;
77085;SDS011;66014;53.134;18.006;2023-04-23T15:25:24;6.10;;;3.30;;
77085;SDS011;66014;53.134;18.006;2023-04-23T15:27:50;5.40;;;2.80;;
77085;SDS011;66014;53.134;18.006;2023-04-23T15:30:25;7.90;;;3.10;;
77085;SDS011;66014;53.134;18.006;2023-04-23T15:32:52;5.90;;;3.00;;
77085;SDS011;66014;53.134;18.006;2023-04-23T15:37:48;6.60;;;3.60;;
77085;SDS011;66014;53.134;18.006;2023-04-23T15:40:14;5.10;;;2.90;;
77085;SDS011;66014;53.134;18.006;2023-04-23T15:42:40;4.50;;;3.10;;
77085;SDS011;66014;53.134;18.006;2023-04-23T15:45:07;8.50;;;3.30;;
77085;SDS011;66014;53.134;18.006;2023-04-23T15:47:34;8.00;;;3.20;;
77085;SDS011;66014;53.134;18.006;2023-04-23T15:50:04;7.10;;;3.80;;
77085;SDS011;66014;53.134;18.006;2023-04-23T15:52:33;8.80;;;3.70;;
77085;SDS011;66014;53.134;18.006;2023-04-23T15:54:59;7.60;;;3.50;;
77085;SDS011;66014;53.134;18.006;2023-04-23T15:57:26;7.50;;;3.80;;
77085;SDS011;66014;53.134;18.006;2023-04-23T15:59:52;6.10;;;3.90;;
77085;SDS011;66014;53.134;18.006;2023-04-23T16:02:20;8.10;;;4.50;;
77085;SDS011;66014;53.134;18.006;2023-04-23T16:04:46;8.30;;;3.70;;
77085;SDS011;66014;53.134;18.006;2023-04-23T16:07:18;11.50;;;4.60;;
77085;SDS011;66014;53.134;18.006;2023-04-23T16:09:44;7.80;;;3.70;;
77085;SDS011;66014;53.134;18.006;2023-04-23T16:14:46;6.20;;;3.80;;
77085;SDS011;66014;53.134;18.006;2023-04-23T16:17:11;8.60;;;4.60;;
77085;SDS011;66014;53.134;18.006;2023-04-23T16:19:37;9.00;;;4.40;;
77085;SDS011;66014;53.134;18.006;2023-04-23T16:22:03;8.30;;;4.70;;
77085;SDS011;66014;53.134;18.006;2023-04-23T16:24:29;8.50;;;5.10;;
77085;SDS011;66014;53.134;18.006;2023-04-23T16:26:55;9.70;;;4.30;;
77085;SDS011;66014;53.134;18.006;2023-04-23T16:29:21;7.70;;;4.30;;
77085;SDS011;66014;53.134;18.006;2023-04-23T16:31:47;5.60;;;4.00;;
77085;SDS011;66014;53.134;18.006;2023-04-23T16:34:14;7.60;;;4.50;;
77085;SDS011;66014;53.134;18.006;2023-04-23T16:36:40;6.80;;;3.40;;
77085;SDS011;66014;53.134;18.006;2023-04-23T16:39:05;6.40;;;3.60;;
77085;SDS011;66014;53.134;18.006;2023-04-23T16:41:31;6.20;;;3.90;;
77085;SDS011;66014;53.134;18.006;2023-04-23T16:43:58;6.80;;;3.90;;
77085;SDS011;66014;53.134;18.006;2023-04-23T16:46:24;4.90;;;3.60;;
77085;SDS011;66014;53.134;18.006;2023-04-23T16:48:54;6.20;;;3.50;;
77085;SDS011;66014;53.134;18.006;2023-04-23T16:51:20;5.30;;;3.40;;
77085;SDS011;66014;53.134;18.006;2023-04-23T16:53:46;8.00;;;3.60;;
77085;SDS011;66014;53.134;18.006;2023-04-23T16:56:12;6.60;;;3.70;;
77085;SDS011;66014;53.134;18.006;2023-04-23T16:58:39;5.50;;;3.40;;
77085;SDS011;66014;53.134;18.006;2023-04-23T17:01:05;5.90;;;3.30;;
77085;SDS011;66014;53.134;18.006;2023-04-23T17:03:30;4.70;;;3.00;;
77085;SDS011;66014;53.134;18.006;2023-04-23T17:06:11;5.90;;;3.60;;
77085;SDS011;66014;53.134;18.006;2023-04-23T17:08:53;5.50;;;3.60;;
77085;SDS011;66014;53.134;18.006;2023-04-23T17:11:19;6.10;;;4.00;;
77085;SDS011;66014;53.134;18.006;2023-04-23T17:13:50;6.00;;;3.90;;
77085;SDS011;66014;53.134;18.006;2023-04-23T17:16:17;6.90;;;3.80;;
77085;SDS011;66014;53.134;18.006;2023-04-23T17:18:43;6.30;;;3.90;;
77085;SDS011;66014;53.134;18.006;2023-04-23T17:21:10;7.90;;;3.90;;
77085;SDS011;66014;53.134;18.006;2023-04-23T17:23:36;7.50;;;4.00;;
77085;SDS011;66014;53.134;18.006;2023-04-23T17:26:02;10.20;;;4.60;;
77085;SDS011;66014;53.134;18.006;2023-04-23T17:31:38;7.10;;;5.20;;
77085;SDS011;66014;53.134;18.006;2023-04-23T17:34:11;7.50;;;4.90;;
77085;SDS011;66014;53.134;18.006;2023-04-23T17:36:44;6.10;;;4.20;;
77085;SDS011;66014;53.134;18.006;2023-04-23T17:39:16;8.40;;;6.20;;